Time;durP1;ratioP1;P1;durP2;ratioP2;P2;SDS_P1;SDS_P2;PMS_P1;PMS_P2;Temp;Humidity;BMP_temperature;BMP_pressure;BME280_temperature;BME280_humidity;BME280_pressure;Samples;Min_cycle;Max_cycle;Signal;HPM_P1;HPM_P2
2021/01/06 00:00:45;;;;;;;12.27;9.75;;;;;;;2.93;82.20;98482.94;4901148;29;20229;-85
2021/01/06 00:03:17;;;;;;;14.00;10.13;;;;;;;2.99;81.99;98480.00;4886832;29;20194;-85
2021/01/06 00:05:43;;;;;;;14.20;10.60;;;;;;;2.86;82.39;98476.19;4895958;29;20198;-84
2021/01/06 00:08:10;;;;;;;15.32;11.27;;;;;;;2.92;82.55;98480.34;4887720;29;20233;-83
2021/01/06 00:10:36;;;;;;;16.33;11.20;;;;;;;2.96;82.39;98480.13;4892138;29;20214;-82
2021/01/06 00:13:03;;;;;;;16.85;10.45;;;;;;;2.97;82.42;98478.34;4891058;29;20230;-84
2021/01/06 00:15:35;;;;;;;14.55;10.00;;;;;;;2.98;81.76;98475.63;4910577;29;20240;-83
2021/01/06 00:18:03;;;;;;;11.93;9.30;;;;;;;3.01;81.92;98480.78;4899464;29;20225;-85
2021/01/06 00:20:31;;;;;;;14.50;10.43;;;;;;;2.95;81.95;98473.09;4906847;29;20214;-82
2021/01/06 00:22:57;;;;;;;12.90;10.43;;;;;;;2.97;81.79;98467.72;4914467;29;20250;-84
2021/01/06 00:25:29;;;;;;;12.63;9.43;;;;;;;2.93;82.29;98476.75;4903956;29;20226;-84
2021/01/06 00:27:56;;;;;;;13.43;9.82;;;;;;;3.00;81.58;98475.53;4917378;29;20237;-84
2021/01/06 00:30:40;;;;;;;12.75;9.80;;;;;;;2.89;81.77;98469.88;4902738;29;20237;-83
2021/01/06 00:33:10;;;;;;;16.10;10.40;;;;;;;2.93;81.97;98471.44;4899771;29;20270;-81
2021/01/06 00:35:38;;;;;;;14.77;10.30;;;;;;;2.99;81.93;98477.34;4901998;29;20230;-82
2021/01/06 00:38:05;;;;;;;13.07;9.95;;;;;;;3.05;82.11;98471.75;4895923;29;20226;-83
2021/01/06 00:40:35;;;;;;;16.52;10.93;;;;;;;2.98;81.34;98469.44;4874818;29;20650;-80
2021/01/06 00:43:07;;;;;;;13.73;10.07;;;;;;;2.98;81.78;98472.09;4889746;29;20278;-82
2021/01/06 00:45:35;;;;;;;12.82;9.40;;;;;;;2.98;81.46;98469.44;4882630;29;20226;-83
2021/01/06 00:48:05;;;;;;;13.93;9.55;;;;;;;2.96;81.82;98468.66;4889719;29;20194;-85
2021/01/06 00:50:34;;;;;;;13.57;10.23;;;;;;;2.93;81.65;98467.00;4879138;29;20231;-84
2021/01/06 00:53:04;;;;;;;13.23;9.88;;;;;;;2.94;81.97;98471.38;4891285;29;20226;-83
2021/01/06 00:55:32;;;;;;;14.35;10.25;;;;;;;2.96;81.54;98466.84;4884244;29;20233;-84
2021/01/06 00:57:59;;;;;;;14.00;9.85;;;;;;;2.99;81.60;98468.50;4892823;29;20269;-83
2021/01/06 01:00:29;;;;;;;12.85;8.75;;;;;;;2.93;81.79;98467.00;4915917;29;20225;-83
2021/01/06 01:02:58;;;;;;;14.10;10.30;;;;;;;2.99;81.58;98472.03;4885000;29;20193;-81
2021/01/06 01:05:28;;;;;;;12.05;9.48;;;;;;;2.91;81.71;98476.84;4918822;29;20194;-83
2021/01/06 01:07:55;;;;;;;12.88;9.98;;;;;;;2.95;82.00;98475.75;4899374;29;20214;-83
2021/01/06 01:10:42;;;;;;;14.55;10.68;;;;;;;2.93;81.94;98477.63;4894478;29;20246;-84
2021/01/06 01:13:15;;;;;;;13.98;9.73;;;;;;;3.00;81.85;98478.19;4873043;29;20247;-84
2021/01/06 01:15:44;;;;;;;10.80;8.88;;;;;;;2.96;81.77;98477.47;4901967;29;20237;-82
2021/01/06 01:18:15;;;;;;;12.70;9.63;;;;;;;3.05;82.11;98485.03;4889459;29;20285;-83
2021/01/06 01:20:46;;;;;;;11.93;9.05;;;;;;;3.10;81.92;98484.81;4886764;29;20202;-84
2021/01/06 01:23:13;;;;;;;13.95;10.15;;;;;;;3.06;81.42;98484.09;4889092;29;20245;-83
2021/01/06 01:25:40;;;;;;;13.32;9.65;;;;;;;3.08;81.61;98492.84;4904358;29;20226;-83
2021/01/06 01:28:06;;;;;;;12.95;10.07;;;;;;;2.85;82.01;98493.06;4893550;29;20241;-83
2021/01/06 01:30:32;;;;;;;14.40;9.95;;;;;;;2.92;81.88;98486.53;4887671;29;20230;-83
2021/01/06 01:32:58;;;;;;;12.45;9.02;;;;;;;2.92;81.46;98485.66;4891635;29;20202;-83
2021/01/06 01:35:28;;;;;;;13.57;11.40;;;;;;;2.94;81.99;98484.66;4909624;29;20206;-81
2021/01/06 01:37:56;;;;;;;13.52;10.70;;;;;;;3.07;81.84;98491.13;4883294;29;20594;-82
2021/01/06 01:40:36;;;;;;;15.23;9.70;;;;;;;3.07;81.41;98487.59;4873541;29;20233;-82
2021/01/06 01:43:20;;;;;;;15.55;10.45;;;;;;;3.01;81.61;98499.38;4878615;29;20230;-82
2021/01/06 01:45:46;;;;;;;11.93;9.23;;;;;;;2.98;81.32;98488.91;4876937;29;20260;-82
2021/01/06 01:48:26;;;;;;;14.07;10.57;;;;;;;2.93;81.75;98493.56;4888973;29;20210;-83
2021/01/06 01:50:55;;;;;;;15.60;11.05;;;;;;;2.94;81.65;98499.72;4894844;29;20341;-82
2021/01/06 01:53:29;;;;;;;16.60;10.02;;;;;;;2.97;82.00;98495.13;4879609;29;20394;-82
2021/01/06 01:55:58;;;;;;;12.95;9.93;;;;;;;2.97;81.52;98492.47;4889006;29;20289;-83
2021/01/06 01:58:27;;;;;;;13.88;10.18;;;;;;;2.93;81.94;98493.56;4885640;29;20226;-83
2021/01/06 02:00:55;;;;;;;13.57;9.85;;;;;;;2.93;81.83;98490.91;4888141;29;20229;-83
2021/01/06 02:03:30;;;;;;;12.45;9.88;;;;;;;3.00;81.59;98486.16;4888427;29;20293;-82
2021/01/06 02:06:16;;;;;;;15.38;10.55;;;;;;;2.97;82.09;98488.97;4884635;29;20208;-83
2021/01/06 02:08:53;;;;;;;11.85;9.25;;;;;;;3.02;81.89;98482.50;4887592;29;20297;-81
2021/01/06 02:11:26;;;;;;;13.30;9.65;;;;;;;3.12;81.58;98489.13;4882539;29;20226;-82
2021/01/06 02:14:07;;;;;;;12.20;9.90;;;;;;;3.05;81.34;98481.50;4868635;29;20248;-83
2021/01/06 02:16:59;;;;;;;11.10;9.05;;;;;;;3.05;81.42;98487.69;4892944;29;20317;-83
2021/01/06 02:19:38;;;;;;;14.55;10.65;;;;;;;3.04;81.45;98485.97;4884514;29;20783;-82
2021/01/06 02:22:07;;;;;;;12.85;9.77;;;;;;;3.02;81.54;98482.50;4892721;29;20219;-83
2021/01/06 02:24:34;;;;;;;11.25;9.20;;;;;;;3.01;81.57;98486.09;4910213;29;20214;-81
2021/01/06 02:27:01;;;;;;;13.32;10.32;;;;;;;3.04;81.69;98487.75;4895608;29;20210;-82
2021/01/06 02:29:28;;;;;;;14.77;9.52;;;;;;;3.11;81.08;98482.09;4890361;29;20245;-82
2021/01/06 02:31:54;;;;;;;12.30;9.18;;;;;;;3.15;81.14;98491.63;4874052;29;20248;-83
2021/01/06 02:34:21;;;;;;;12.50;9.60;;;;;;;3.13;80.87;98485.53;4896515;29;20262;-82
2021/01/06 02:36:48;;;;;;;10.98;8.98;;;;;;;3.12;80.98;98480.28;4885582;29;20324;-82
2021/01/06 02:39:15;;;;;;;11.80;9.18;;;;;;;3.16;81.39;98490.69;4899224;29;20226;-81
2021/01/06 02:41:43;;;;;;;10.65;8.00;;;;;;;3.24;80.47;98485.91;4882774;29;20206;-82
2021/01/06 02:44:09;;;;;;;10.60;8.50;;;;;;;3.27;80.49;98487.56;4899046;29;20314;-82
2021/01/06 02:46:36;;;;;;;12.57;8.82;;;;;;;3.18;80.37;98488.84;4892529;29;20245;-82
2021/01/06 02:49:04;;;;;;;10.82;8.50;;;;;;;3.16;80.53;98487.19;4894255;29;20238;-82
2021/01/06 02:52:01;;;;;;;14.45;9.90;;;;;;;3.19;80.11;98484.38;4894328;29;20713;-83
2021/01/06 02:54:33;;;;;;;13.80;9.55;;;;;;;3.22;80.32;98479.78;4884248;29;20225;-83
2021/01/06 02:57:01;;;;;;;12.98;8.35;;;;;;;3.21;79.95;98482.53;4891336;29;20331;-82
2021/01/06 02:59:39;;;;;;;11.07;8.52;;;;;;;3.11;80.07;98482.09;4897020;29;20218;-81
2021/01/06 03:02:13;;;;;;;12.38;8.98;;;;;;;3.03;80.64;98486.88;4875627;29;20669;-82
2021/01/06 03:04:51;;;;;;;11.55;9.32;;;;;;;2.99;80.69;98482.66;4888921;29;20477;-81
2021/01/06 03:07:18;;;;;;;11.52;8.90;;;;;;;3.09;80.67;98478.63;4899880;29;20849;-83
2021/01/06 03:09:45;;;;;;;10.50;7.85;;;;;;;3.07;80.47;98482.28;4893070;29;20233;-82
2021/01/06 03:12:20;;;;;;;13.45;9.65;;;;;;;2.99;80.94;98481.78;4892767;29;20218;-84
2021/01/06 03:14:46;;;;;;;10.63;8.02;;;;;;;2.94;80.73;98479.34;4885335;29;20199;-83
2021/01/06 03:17:16;;;;;;;10.05;8.27;;;;;;;2.96;81.27;98472.16;4885151;29;20233;-83
2021/01/06 03:19:46;;;;;;;9.40;8.23;;;;;;;3.03;81.46;98473.59;4897572;29;20728;-82
2021/01/06 03:22:21;;;;;;;10.18;8.80;;;;;;;3.03;81.10;98484.22;4908045;29;20221;-82
2021/01/06 03:25:14;;;;;;;11.60;9.15;;;;;;;3.08;81.02;98482.22;4899452;29;20217;-82
2021/01/06 03:27:43;;;;;;;11.52;8.07;;;;;;;3.06;80.51;98478.78;4877558;29;20290;-83
2021/01/06 03:30:15;;;;;;;11.23;8.60;;;;;;;2.99;80.74;98472.03;4878656;29;20226;-83
2021/01/06 03:32:56;;;;;;;10.57;8.32;;;;;;;3.00;80.92;98467.56;4859936;29;20624;-83
2021/01/06 03:35:31;;;;;;;10.70;8.32;;;;;;;2.99;80.85;98472.03;4883950;29;20228;-83
2021/01/06 03:38:40;;;;;;;10.50;7.75;;;;;;;2.98;81.20;98462.34;4869221;29;20229;-83
2021/01/06 03:41:08;;;;;;;10.18;8.30;;;;;;;3.04;81.02;98466.50;4854325;29;20234;-83
2021/01/06 03:43:42;;;;;;;10.70;9.07;;;;;;;3.08;80.85;98465.44;4902016;29;20344;-83
2021/01/06 03:46:38;;;;;;;9.43;8.27;;;;;;;2.98;80.57;98472.97;4879183;29;20771;-83
2021/01/06 03:49:12;;;;;;;11.35;8.13;;;;;;;3.12;80.39;98465.22;4882733;29;20261;-83
2021/01/06 03:52:07;;;;;;;8.88;7.97;;;;;;;3.11;80.49;98466.16;4868722;29;20700;-83
2021/01/06 03:54:55;;;;;;;11.07;8.10;;;;;;;3.11;80.12;98466.16;4885773;29;20236;-83
2021/01/06 03:57:23;;;;;;;10.93;8.05;;;;;;;3.13;80.10;98464.28;4889910;29;20226;-83
2021/01/06 03:59:51;;;;;;;10.90;8.27;;;;;;;3.05;79.78;98453.16;4887094;29;20217;-83
2021/01/06 04:02:25;;;;;;;8.57;7.68;;;;;;;3.00;80.30;98452.50;4900392;29;20242;-83
2021/01/06 04:05:02;;;;;;;10.38;7.05;;;;;;;3.00;80.16;98447.19;4866952;29;20326;-83
2021/01/06 04:07:39;;;;;;;8.95;7.10;;;;;;;2.99;80.42;98450.78;4893230;29;20301;-83
2021/01/06 04:10:08;;;;;;;9.20;7.22;;;;;;;2.89;80.91;98448.63;4882467;29;20246;-83
2021/01/06 04:12:35;;;;;;;9.85;8.15;;;;;;;3.01;81.13;98448.06;4884355;29;20222;-83
2021/01/06 04:15:04;;;;;;;6.97;6.20;;;;;;;2.95;80.77;98435.94;4898951;29;20202;-81
2021/01/06 04:17:33;;;;;;;8.85;6.93;;;;;;;2.93;80.74;98440.47;4916636;29;20209;-82
2021/01/06 04:20:15;;;;;;;9.93;7.35;;;;;;;2.89;80.81;98435.38;4906061;29;20249;-82
2021/01/06 04:22:48;;;;;;;8.32;6.70;;;;;;;2.84;81.20;98430.25;4906994;29;20230;-81
2021/01/06 04:25:32;;;;;;;9.20;7.32;;;;;;;2.98;80.95;98426.97;4884260;29;20268;-81
2021/01/06 04:28:03;;;;;;;8.98;6.80;;;;;;;2.88;80.91;98426.53;4891762;29;20286;-81
2021/01/06 04:30:46;;;;;;;8.07;6.97;;;;;;;2.98;81.05;98424.31;4878062;29;20257;-81
2021/01/06 04:33:27;;;;;;;8.70;7.47;;;;;;;3.01;80.95;98426.84;4889437;29;20190;-81
2021/01/06 04:35:55;;;;;;;8.00;6.35;;;;;;;2.95;80.60;98420.00;4885789;29;20791;-81
2021/01/06 04:38:25;;;;;;;7.30;6.40;;;;;;;2.87;80.65;98424.81;4901317;29;20218;-80
2021/01/06 04:40:55;;;;;;;8.35;6.85;;;;;;;2.84;80.98;98419.63;4887170;29;20230;-82
2021/01/06 04:43:41;;;;;;;10.52;7.95;;;;;;;2.85;81.48;98426.69;4914454;29;20230;-80
2021/01/06 04:46:17;;;;;;;7.65;6.85;;;;;;;2.91;81.35;98422.88;4913186;29;20229;-82
2021/01/06 04:49:01;;;;;;;8.75;6.85;;;;;;;3.02;80.98;98421.44;4913771;29;20224;-82
2021/01/06 04:51:42;;;;;;;8.70;7.05;;;;;;;2.93;80.85;98435.16;4900517;29;20234;-81
2021/01/06 04:54:51;;;;;;;8.35;6.22;;;;;;;3.03;80.68;98420.50;4882368;29;20202;-81
2021/01/06 04:57:38;;;;;;;9.25;6.78;;;;;;;2.97;80.77;98433.22;4865947;29;20242;-82
2021/01/06 05:00:54;;;;;;;9.70;7.32;;;;;;;2.91;81.05;98436.16;4885383;29;20258;-81
2021/01/06 05:03:59;;;;;;;8.98;7.68;;;;;;;2.86;81.58;98433.72;4848659;29;20231;-82
2021/01/06 05:06:33;;;;;;;10.02;7.63;;;;;;;3.00;81.07;98439.22;4848599;29;20234;-81
2021/01/06 05:09:10;;;;;;;9.80;7.68;;;;;;;2.91;81.39;98434.38;4904739;29;20282;-80
2021/01/06 05:11:43;;;;;;;11.90;8.45;;;;;;;2.93;81.53;98429.84;4921400;29;20200;-81
2021/01/06 05:14:16;;;;;;;10.13;7.85;;;;;;;2.91;81.11;98438.78;4913445;28;20230;-80
2021/01/06 05:16:45;;;;;;;9.63;7.82;;;;;;;2.87;81.52;98435.44;4900219;29;20286;-81
2021/01/06 05:19:24;;;;;;;11.20;8.07;;;;;;;2.93;81.33;98435.16;4883814;29;20238;-82
2021/01/06 05:21:52;;;;;;;9.73;8.23;;;;;;;2.88;81.45;98442.44;4890712;29;20232;-82
2021/01/06 05:24:31;;;;;;;10.43;7.50;;;;;;;2.91;81.85;98441.47;4879183;29;20241;-81
2021/01/06 05:27:06;;;;;;;11.82;8.60;;;;;;;2.82;81.38;98445.38;4857950;29;20210;-82
2021/01/06 05:29:33;;;;;;;12.45;8.85;;;;;;;2.81;81.64;98448.09;4895602;29;20218;-83
2021/01/06 05:31:59;;;;;;;13.50;8.40;;;;;;;2.75;81.94;98446.59;4896023;29;20230;-82
2021/01/06 05:34:28;;;;;;;15.32;8.60;;;;;;;2.75;81.84;98446.59;4899940;29;20230;-83
2021/01/06 05:36:54;;;;;;;10.55;8.20;;;;;;;2.69;81.81;98446.88;4875258;29;20242;-83
2021/01/06 05:39:29;;;;;;;12.15;9.05;;;;;;;2.75;82.26;98445.72;4868189;29;20329;-83
2021/01/06 05:42:08;;;;;;;11.93;9.10;;;;;;;2.76;82.44;98442.16;4880140;29;20214;-83
2021/01/06 05:44:35;;;;;;;12.40;8.98;;;;;;;2.82;82.61;98444.53;4881026;29;20605;-83
2021/01/06 05:47:01;;;;;;;12.25;9.18;;;;;;;2.85;81.63;98442.59;4884386;29;20245;-83
2021/01/06 05:49:31;;;;;;;12.32;9.10;;;;;;;2.90;82.05;98437.91;4885246;29;20217;-83
2021/01/06 05:52:07;;;;;;;13.70;9.75;;;;;;;2.78;82.05;98445.59;4899436;29;20256;-81
2021/01/06 05:54:47;;;;;;;13.13;9.25;;;;;;;2.82;82.21;98447.19;4902736;29;20253;-81
2021/01/06 05:57:35;;;;;;;13.35;9.93;;;;;;;2.76;82.93;98450.97;4895776;29;20221;-81
2021/01/06 06:00:38;;;;;;;12.73;9.65;;;;;;;2.86;82.70;98452.28;4917883;29;20214;-80
2021/01/06 06:03:44;;;;;;;14.50;10.20;;;;;;;2.87;82.25;98443.38;4912268;29;20210;-81
2021/01/06 06:06:32;;;;;;;14.27;10.15;;;;;;;2.80;82.32;98441.06;4873420;29;20226;-82
2021/01/06 06:09:07;;;;;;;12.95;9.27;;;;;;;2.77;82.06;98444.72;4876278;29;20255;-82
2021/01/06 06:11:52;;;;;;;13.65;9.95;;;;;;;2.81;82.21;98451.63;4903589;29;20212;-81
2021/01/06 06:14:44;;;;;;;12.57;8.43;;;;;;;2.94;81.85;98450.13;4889040;29;20233;-83
2021/01/06 06:17:27;;;;;;;14.05;9.52;;;;;;;2.94;81.70;98452.78;4893861;29;20250;-81
2021/01/06 06:20:06;;;;;;;12.77;9.13;;;;;;;3.02;81.45;98449.78;4903963;29;20241;-81
2021/01/06 06:22:38;;;;;;;12.20;9.15;;;;;;;3.05;81.37;98455.81;4915426;29;20229;-82
2021/01/06 06:25:25;;;;;;;13.93;9.27;;;;;;;2.98;81.42;98454.38;4902042;28;20218;-83
2021/01/06 06:28:25;;;;;;;12.18;8.85;;;;;;;3.06;81.63;98457.53;4902262;29;20213;-83
2021/01/06 06:30:57;;;;;;;12.70;9.05;;;;;;;3.04;81.49;98464.72;4913050;29;20218;-83
2021/01/06 06:33:30;;;;;;;13.90;9.10;;;;;;;2.97;81.68;98460.59;4902658;29;20226;-82
2021/01/06 06:35:59;;;;;;;12.63;8.90;;;;;;;3.07;81.04;98466.34;4897692;29;20214;-84
2021/01/06 06:38:36;;;;;;;10.95;8.52;;;;;;;2.98;81.57;98458.81;4859220;29;20738;-84
2021/01/06 06:41:07;;;;;;;13.07;10.10;;;;;;;2.94;81.81;98466.06;4884722;29;20277;-84
2021/01/06 06:43:40;;;;;;;14.75;9.90;;;;;;;2.99;81.66;98469.38;4902198;28;20234;-84
2021/01/06 06:46:25;;;;;;;12.30;9.80;;;;;;;3.03;81.49;98472.75;4870553;29;20240;-83
2021/01/06 06:49:15;;;;;;;10.43;8.50;;;;;;;2.96;81.80;98469.50;4910684;29;20242;-84
2021/01/06 06:51:54;;;;;;;15.43;9.70;;;;;;;2.99;81.84;98479.13;4877322;29;20213;-84
2021/01/06 06:54:35;;;;;;;14.98;8.90;;;;;;;2.97;81.65;98467.72;4868755;29;20230;-81
2021/01/06 06:57:09;;;;;;;10.68;8.70;;;;;;;3.01;81.74;98474.63;4867547;29;20224;-82
2021/01/06 07:00:14;;;;;;;11.35;8.32;;;;;;;3.03;81.30;98476.25;4890736;29;20223;-82
2021/01/06 07:02:48;;;;;;;12.48;9.18;;;;;;;2.96;81.31;98477.47;4879581;29;20215;-82
2021/01/06 07:05:33;;;;;;;14.43;10.65;;;;;;;3.02;81.64;98477.19;4887717;29;20286;-81
2021/01/06 07:08:18;;;;;;;11.60;8.60;;;;;;;3.04;81.59;98477.13;4878740;29;20225;-82
2021/01/06 07:10:53;;;;;;;13.90;9.55;;;;;;;3.05;81.95;98482.38;4896524;29;20258;-83
2021/01/06 07:13:22;;;;;;;13.98;8.95;;;;;;;3.10;81.20;98477.72;4888921;29;20261;-84
2021/01/06 07:15:58;;;;;;;9.90;8.25;;;;;;;3.09;81.03;98485.75;4867653;29;20240;-83
2021/01/06 07:18:25;;;;;;;15.30;9.93;;;;;;;3.12;80.66;98486.47;4893449;29;20232;-82
2021/01/06 07:21:06;;;;;;;9.45;7.63;;;;;;;3.12;80.81;98482.94;4872076;29;20273;-83
2021/01/06 07:23:38;;;;;;;12.57;8.45;;;;;;;3.20;80.90;98486.13;4864202;29;20250;-82
2021/01/06 07:26:12;;;;;;;11.57;8.80;;;;;;;3.18;81.07;98488.84;4867310;29;20295;-82
2021/01/06 07:28:40;;;;;;;11.82;8.07;;;;;;;3.17;80.87;98487.13;4890029;29;20703;-82
2021/01/06 07:31:11;;;;;;;11.55;8.32;;;;;;;3.16;81.34;98496.00;4870764;29;20302;-81
2021/01/06 07:33:43;;;;;;;12.55;9.05;;;;;;;3.15;81.03;98488.97;4899609;29;20230;-81
2021/01/06 07:36:20;;;;;;;14.15;9.07;;;;;;;3.17;80.76;98497.75;4900832;29;20270;-81
2021/01/06 07:38:48;;;;;;;11.63;8.65;;;;;;;3.16;80.80;98493.34;4898894;29;20225;-84
2021/01/06 07:41:23;;;;;;;12.82;9.02;;;;;;;3.16;80.82;98501.31;4882723;29;20784;-83
2021/01/06 07:44:04;;;;;;;11.48;9.00;;;;;;;3.16;80.98;98501.31;4898408;29;20276;-83
2021/01/06 07:46:45;;;;;;;11.88;8.98;;;;;;;3.17;81.19;98502.19;4894699;29;20226;-82
2021/01/06 07:49:31;;;;;;;13.18;9.10;;;;;;;3.18;81.37;98504.78;4902322;29;20230;-83
2021/01/06 07:52:19;;;;;;;10.65;8.40;;;;;;;3.19;80.77;98508.28;4878241;29;20296;-83
2021/01/06 07:55:18;;;;;;;28.00;17.27;;;;;;;3.21;80.87;98519.72;4887421;29;20229;-84
2021/01/06 07:57:51;;;;;;;13.35;10.80;;;;;;;3.17;80.66;98507.50;4881663;29;20731;-84
2021/01/06 08:00:57;;;;;;;13.60;9.25;;;;;;;3.13;80.91;98519.19;4888625;29;20252;-84
2021/01/06 08:03:52;;;;;;;13.30;9.25;;;;;;;3.11;80.92;98523.72;4844013;29;20312;-84
2021/01/06 08:06:20;;;;;;;12.93;8.77;;;;;;;3.12;81.26;98528.97;4899357;29;20237;-84
2021/01/06 08:08:49;;;;;;;15.52;8.98;;;;;;;3.13;81.29;98525.38;4878827;29;20223;-82
2021/01/06 08:11:18;;;;;;;11.70;8.65;;;;;;;3.18;80.89;98528.69;4889301;29;20229;-84
2021/01/06 08:13:44;;;;;;;13.60;9.30;;;;;;;3.16;81.00;98519.91;4879344;29;20244;-82
2021/01/06 08:16:29;;;;;;;14.77;8.63;;;;;;;3.12;81.10;98521.00;4894536;29;20262;-82
2021/01/06 08:19:17;;;;;;;11.68;8.35;;;;;;;3.22;81.30;98526.75;4895179;29;20221;-81
2021/01/06 08:22:17;;;;;;;12.00;8.52;;;;;;;3.29;80.63;98529.03;4897803;29;20241;-82
2021/01/06 08:25:02;;;;;;;9.40;7.22;;;;;;;3.27;80.49;98525.59;4896196;29;20226;-82
2021/01/06 08:27:40;;;;;;;11.30;9.27;;;;;;;3.31;80.33;98527.19;4911766;29;20229;-81
2021/01/06 08:30:27;;;;;;;10.63;8.52;;;;;;;3.22;80.39;98522.28;4880480;29;20206;-82
2021/01/06 08:33:09;;;;;;;11.98;8.82;;;;;;;3.31;79.95;98528.97;4907144;29;20209;-82
2021/01/06 08:35:40;;;;;;;15.98;9.25;;;;;;;3.48;80.06;98535.22;4892480;29;20229;-83
2021/01/06 08:38:24;;;;;;;13.38;10.68;;;;;;;3.40;79.82;98526.75;4904270;29;20233;-81
2021/01/06 08:40:51;;;;;;;10.68;8.30;;;;;;;3.39;80.13;98526.81;4883817;29;20257;-84
2021/01/06 08:43:17;;;;;;;12.18;7.70;;;;;;;3.34;80.72;98528.84;4906560;29;20285;-82
2021/01/06 08:46:05;;;;;;;10.20;8.40;;;;;;;3.37;79.73;98532.22;4902646;29;20237;-80
2021/01/06 08:48:35;;;;;;;13.82;9.00;;;;;;;3.46;79.97;98530.94;4866627;29;20258;-82
2021/01/06 08:51:13;;;;;;;13.27;9.98;;;;;;;3.57;80.03;98528.63;4874285;29;20206;-81
2021/01/06 08:53:58;;;;;;;13.43;9.27;;;;;;;3.52;79.65;98534.16;4877426;29;20232;-81
2021/01/06 08:56:29;;;;;;;14.68;10.10;;;;;;;3.41;79.77;98541.75;4908095;29;20292;-82
2021/01/06 08:58:57;;;;;;;15.60;10.52;;;;;;;3.38;80.10;98543.69;4904709;29;20611;-81
2021/01/06 09:01:41;;;;;;;11.52;9.10;;;;;;;3.45;80.27;98535.38;4878853;29;20237;-84
2021/01/06 09:04:13;;;;;;;13.90;8.75;;;;;;;3.48;79.95;98537.03;4904620;29;20289;-84
2021/01/06 09:07:12;;;;;;;15.40;8.88;;;;;;;3.50;79.88;98544.00;4879019;29;20306;-83
2021/01/06 09:09:57;;;;;;;11.77;8.48;;;;;;;3.54;80.39;98544.72;4888638;29;20238;-83
2021/01/06 09:12:32;;;;;;;10.35;7.60;;;;;;;3.83;79.32;98546.84;4884515;29;20225;-82
2021/01/06 09:14:59;;;;;;;10.65;7.85;;;;;;;3.77;79.38;98539.16;4891262;29;20211;-81
2021/01/06 09:17:36;;;;;;;14.32;9.65;;;;;;;3.80;79.11;98542.53;4910493;29;20220;-81
2021/01/06 09:20:13;;;;;;;10.77;7.85;;;;;;;3.80;78.88;98542.53;4879709;29;20296;-80
2021/01/06 09:22:42;;;;;;;13.45;9.40;;;;;;;3.83;79.02;98553.03;4908926;29;20226;-81
2021/01/06 09:25:14;;;;;;;12.73;9.73;;;;;;;3.81;79.00;98549.59;4898813;29;20222;-81
2021/01/06 09:27:44;;;;;;;10.63;8.55;;;;;;;3.85;79.43;98553.81;4880056;29;20225;-82
2021/01/06 09:30:23;;;;;;;12.15;7.93;;;;;;;3.78;78.86;98560.38;4905431;29;20261;-81
2021/01/06 09:32:51;;;;;;;14.50;9.55;;;;;;;3.92;78.82;98549.91;4899596;29;20643;-82
2021/01/06 09:35:25;;;;;;;9.60;7.45;;;;;;;3.95;78.27;98555.13;4886566;29;20238;-82
2021/01/06 09:37:57;;;;;;;12.15;8.57;;;;;;;3.92;78.50;98555.25;4909944;29;20242;-82
2021/01/06 09:40:25;;;;;;;10.45;7.60;;;;;;;3.93;78.75;98556.97;4892024;29;20300;-82
2021/01/06 09:42:59;;;;;;;9.77;7.28;;;;;;;3.86;78.90;98565.34;4897094;29;20314;-82
2021/01/06 09:45:29;;;;;;;12.75;8.63;;;;;;;3.84;78.90;98553.91;4892326;29;20288;-82
2021/01/06 09:47:59;;;;;;;11.40;8.32;;;;;;;3.72;78.99;98558.00;4903319;29;20193;-82
2021/01/06 09:50:57;;;;;;;10.15;7.10;;;;;;;3.73;79.35;98562.38;4883077;29;20233;-82
2021/01/06 09:53:26;;;;;;;11.55;7.80;;;;;;;3.78;79.27;98554.22;4883293;29;20227;-82
2021/01/06 09:55:55;;;;;;;8.25;7.00;;;;;;;3.68;79.60;98559.09;4891614;29;20211;-83
2021/01/06 09:58:38;;;;;;;8.48;7.10;;;;;;;3.89;80.08;98558.06;4891365;29;20235;-84
2021/01/06 10:01:35;;;;;;;10.32;8.38;;;;;;;3.89;78.83;98558.06;4892143;29;20226;-82
2021/01/06 10:04:11;;;;;;;8.45;6.40;;;;;;;3.80;79.56;98555.00;4894245;28;20229;-81
2021/01/06 10:07:10;;;;;;;9.10;6.90;;;;;;;3.85;79.83;98556.47;4879838;29;20246;-81
2021/01/06 10:09:41;;;;;;;7.38;6.25;;;;;;;3.97;79.43;98560.38;4886445;29;20210;-81
2021/01/06 10:12:33;;;;;;;11.85;7.40;;;;;;;3.95;79.05;98559.56;4886470;29;20175;-81
2021/01/06 10:15:17;;;;;;;8.10;6.70;;;;;;;3.92;79.38;98559.72;4889917;29;20278;-80
2021/01/06 10:17:54;;;;;;;10.55;7.68;;;;;;;3.96;79.33;98554.16;4894823;29;20217;-81
2021/01/06 10:20:43;;;;;;;8.65;6.85;;;;;;;3.91;78.67;98555.34;4886083;29;20230;-79
2021/01/06 10:23:42;;;;;;;8.38;6.38;;;;;;;3.83;79.04;98555.69;4904769;28;20230;-79
2021/01/06 10:26:42;;;;;;;10.13;7.13;;;;;;;3.88;79.17;98547.50;4911713;29;20221;-82
2021/01/06 10:29:16;;;;;;;9.60;7.63;;;;;;;4.11;78.85;98555.22;4888049;29;20729;-81
2021/01/06 10:32:09;;;;;;;9.32;6.85;;;;;;;3.98;78.34;98557.59;4873102;29;20232;-82
2021/01/06 10:34:39;;;;;;;7.57;6.30;;;;;;;3.99;78.37;98554.00;4876474;29;20230;-78
2021/01/06 10:37:30;;;;;;;9.00;6.40;;;;;;;3.91;79.08;98553.53;4908225;29;20237;-81
2021/01/06 10:39:59;;;;;;;6.90;6.18;;;;;;;3.81;79.00;98549.59;4884365;29;20229;-83
2021/01/06 10:42:33;;;;;;;8.50;7.00;;;;;;;3.89;79.07;98542.09;4888096;29;20258;-82
2021/01/06 10:45:14;;;;;;;10.32;7.50;;;;;;;3.98;79.14;98544.31;4890892;29;20208;-81
2021/01/06 10:47:48;;;;;;;9.55;7.38;;;;;;;4.19;79.18;98545.94;4905096;29;20205;-82
2021/01/06 10:50:23;;;;;;;8.40;7.15;;;;;;;4.13;78.32;98540.03;4904453;29;20611;-82
2021/01/06 10:53:02;;;;;;;8.35;6.40;;;;;;;4.20;78.07;98542.34;4882130;29;20229;-83
2021/01/06 10:55:37;;;;;;;10.38;7.03;;;;;;;4.29;77.76;98536.53;4896846;29;20290;-81
2021/01/06 10:58:16;;;;;;;7.60;6.75;;;;;;;4.35;78.14;98536.25;4889812;29;20697;-81
2021/01/06 11:00:54;;;;;;;10.70;8.10;;;;;;;4.37;77.54;98534.34;4876570;29;20237;-81
2021/01/06 11:03:30;;;;;;;8.60;6.75;;;;;;;4.31;77.14;98529.34;4888197;29;20293;-77
2021/01/06 11:06:18;;;;;;;8.38;6.90;;;;;;;4.36;76.66;98529.13;4904544;29;20201;-80
2021/01/06 11:09:23;;;;;;;10.90;7.78;;;;;;;4.49;77.23;98532.91;4909354;29;20230;-81
2021/01/06 11:12:16;;;;;;;7.50;6.70;;;;;;;4.34;76.27;98525.66;4908607;29;20229;-81
2021/01/06 11:15:17;;;;;;;9.68;7.03;;;;;;;4.32;77.04;98525.75;4878590;29;20257;-82
2021/01/06 11:18:32;;;;;;;10.35;7.30;;;;;;;4.29;76.31;98525.06;4884388;29;20233;-82
2021/01/06 11:21:13;;;;;;;9.30;6.75;;;;;;;4.23;76.65;98522.69;4896140;29;20663;-79
2021/01/06 11:23:53;;;;;;;10.38;6.88;;;;;;;4.39;76.15;98519.19;4895058;29;20202;-82
2021/01/06 11:26:41;;;;;;;9.60;6.93;;;;;;;4.32;76.54;98519.56;4914709;29;20225;-81
2021/01/06 11:29:10;;;;;;;11.63;7.20;;;;;;;4.34;76.62;98523.00;4928574;29;20233;-81
2021/01/06 11:31:39;;;;;;;8.95;6.72;;;;;;;4.20;76.37;98521.06;4903417;29;20237;-81
2021/01/06 11:34:11;;;;;;;9.25;7.00;;;;;;;4.37;76.43;98517.53;4904388;29;20242;-82
2021/01/06 11:36:41;;;;;;;11.35;7.60;;;;;;;4.37;76.30;98518.38;4923983;29;20240;-80
2021/01/06 11:39:32;;;;;;;9.23;7.20;;;;;;;4.39;76.04;98511.22;4892407;29;20230;-80
2021/01/06 11:42:09;;;;;;;9.93;6.97;;;;;;;4.52;75.69;98506.97;4899125;29;20308;-80
2021/01/06 11:44:41;;;;;;;10.27;6.55;;;;;;;4.39;75.99;98505.00;4870071;29;20233;-81
2021/01/06 11:47:27;;;;;;;8.32;6.15;;;;;;;4.45;75.92;98499.38;4891978;29;20286;-83
2021/01/06 11:50:19;;;;;;;10.60;7.07;;;;;;;4.53;74.97;98492.72;4905435;29;20230;-83
2021/01/06 11:52:48;;;;;;;8.52;6.85;;;;;;;4.62;74.77;98497.56;4867070;29;20268;-81
2021/01/06 11:55:33;;;;;;;8.80;6.10;;;;;;;4.64;74.52;98498.38;4884676;29;20255;-82
2021/01/06 11:58:08;;;;;;;9.60;6.55;;;;;;;4.52;74.19;98491.00;4900079;29;20231;-81
2021/01/06 12:00:40;;;;;;;9.82;6.68;;;;;;;4.44;75.04;98487.84;4899015;28;20261;-83
2021/01/06 12:03:06;;;;;;;7.28;5.90;;;;;;;4.39;75.14;98483.72;4894751;29;20201;-80
2021/01/06 12:05:41;;;;;;;7.90;6.60;;;;;;;4.40;75.18;98491.63;4908162;29;20198;-81
2021/01/06 12:08:20;;;;;;;9.00;6.72;;;;;;;4.52;75.64;98491.00;4895316;29;20265;-80
2021/01/06 12:11:03;;;;;;;8.45;6.28;;;;;;;4.49;75.54;98490.31;4911617;29;20233;-81
2021/01/06 12:13:50;;;;;;;7.10;5.22;;;;;;;4.39;74.69;98489.91;4896172;29;20296;-81
2021/01/06 12:16:22;;;;;;;7.20;5.45;;;;;;;4.44;75.51;98492.34;4916167;29;22188;-81
2021/01/06 12:19:07;;;;;;;7.10;5.20;;;;;;;4.49;75.34;98490.31;4887254;29;20245;-81